sensor_id;sensor_type;location;lat;lon;timestamp;P1;durP1;ratioP1;P2;durP2;ratioP2
23543;SDS011;11950;51.230;4.012;2023-02-11T00:01:56;16.50;;;6.40;;
23543;SDS011;11950;51.230;4.012;2023-02-11T00:04:22;21.65;;;6.55;;
23543;SDS011;11950;51.230;4.012;2023-02-11T00:06:48;23.67;;;7.82;;
23543;SDS011;11950;51.230;4.012;2023-02-11T00:09:15;20.75;;;8.05;;
23543;SDS011;11950;51.230;4.012;2023-02-11T00:11:41;20.00;;;8.90;;
23543;SDS011;11950;51.230;4.012;2023-02-11T00:14:08;15.15;;;7.68;;
23543;SDS011;11950;51.230;4.012;2023-02-11T00:16:36;17.45;;;7.88;;
23543;SDS011;11950;51.230;4.012;2023-02-11T00:19:02;21.85;;;8.15;;
23543;SDS011;11950;51.230;4.012;2023-02-11T00:21:30;17.02;;;8.85;;
23543;SDS011;11950;51.230;4.012;2023-02-11T00:23:58;23.85;;;8.88;;
23543;SDS011;11950;51.230;4.012;2023-02-11T00:26:31;20.17;;;9.48;;
23543;SDS011;11950;51.230;4.012;2023-02-11T00:28:58;18.42;;;9.52;;
23543;SDS011;11950;51.230;4.012;2023-02-11T00:31:26;21.23;;;9.10;;
23543;SDS011;11950;51.230;4.012;2023-02-11T00:33:53;21.02;;;9.75;;
23543;SDS011;11950;51.230;4.012;2023-02-11T00:36:22;22.23;;;9.23;;
23543;SDS011;11950;51.230;4.012;2023-02-11T00:38:51;21.45;;;8.50;;
23543;SDS011;11950;51.230;4.012;2023-02-11T00:41:19;15.60;;;9.07;;
23543;SDS011;11950;51.230;4.012;2023-02-11T00:43:46;16.88;;;7.88;;
23543;SDS011;11950;51.230;4.012;2023-02-11T00:46:13;14.35;;;9.05;;
23543;SDS011;11950;51.230;4.012;2023-02-11T00:48:40;17.25;;;8.02;;
23543;SDS011;11950;51.230;4.012;2023-02-11T00:51:06;14.80;;;7.70;;
23543;SDS011;11950;51.230;4.012;2023-02-11T00:53:33;16.90;;;7.30;;
23543;SDS011;11950;51.230;4.012;2023-02-11T00:56:00;20.38;;;7.15;;
23543;SDS011;11950;51.230;4.012;2023-02-11T00:58:26;14.38;;;6.95;;
23543;SDS011;11950;51.230;4.012;2023-02-11T01:00:53;15.48;;;6.35;;
23543;SDS011;11950;51.230;4.012;2023-02-11T01:03:20;19.55;;;5.85;;
23543;SDS011;11950;51.230;4.012;2023-02-11T01:05:47;14.02;;;7.15;;
23543;SDS011;11950;51.230;4.012;2023-02-11T01:08:13;14.25;;;6.65;;
23543;SDS011;11950;51.230;4.012;2023-02-11T01:10:40;18.05;;;7.43;;
23543;SDS011;11950;51.230;4.012;2023-02-11T01:13:07;17.48;;;7.35;;
23543;SDS011;11950;51.230;4.012;2023-02-11T01:15:33;23.45;;;8.52;;
23543;SDS011;11950;51.230;4.012;2023-02-11T01:18:00;19.33;;;7.13;;
23543;SDS011;11950;51.230;4.012;2023-02-11T01:20:26;20.98;;;8.25;;
23543;SDS011;11950;51.230;4.012;2023-02-11T01:22:55;17.40;;;8.10;;
23543;SDS011;11950;51.230;4.012;2023-02-11T01:25:22;21.13;;;7.95;;
23543;SDS011;11950;51.230;4.012;2023-02-11T01:27:48;20.02;;;8.07;;
23543;SDS011;11950;51.230;4.012;2023-02-11T01:30:14;17.95;;;7.40;;
23543;SDS011;11950;51.230;4.012;2023-02-11T01:32:40;18.38;;;8.60;;
23543;SDS011;11950;51.230;4.012;2023-02-11T01:35:07;17.58;;;8.77;;
23543;SDS011;11950;51.230;4.012;2023-02-11T01:37:34;18.15;;;8.70;;
23543;SDS011;11950;51.230;4.012;2023-02-11T01:40:02;19.27;;;9.30;;
23543;SDS011;11950;51.230;4.012;2023-02-11T01:42:31;17.55;;;8.95;;
23543;SDS011;11950;51.230;4.012;2023-02-11T01:44:59;24.33;;;10.13;;
23543;SDS011;11950;51.230;4.012;2023-02-11T01:47:26;24.58;;;9.38;;
23543;SDS011;11950;51.230;4.012;2023-02-11T01:49:54;23.48;;;9.85;;
23543;SDS011;11950;51.230;4.012;2023-02-11T01:54:59;22.08;;;10.18;;
23543;SDS011;11950;51.230;4.012;2023-02-11T01:57:50;23.67;;;9.75;;
23543;SDS011;11950;51.230;4.012;2023-02-11T02:00:26;15.63;;;9.00;;
23543;SDS011;11950;51.230;4.012;2023-02-11T02:03:11;21.70;;;9.00;;
23543;SDS011;11950;51.230;4.012;2023-02-11T02:05:47;18.45;;;9.07;;
23543;SDS011;11950;51.230;4.012;2023-02-11T02:08:18;17.23;;;7.22;;
23543;SDS011;11950;51.230;4.012;2023-02-11T02:10:50;20.65;;;7.57;;
23543;SDS011;11950;51.230;4.012;2023-02-11T02:13:21;19.85;;;7.35;;
23543;SDS011;11950;51.230;4.012;2023-02-11T02:43:13;12.98;;;5.63;;
23543;SDS011;11950;51.230;4.012;2023-02-11T02:45:41;11.90;;;5.53;;
23543;SDS011;11950;51.230;4.012;2023-02-11T02:48:21;11.65;;;4.93;;
23543;SDS011;11950;51.230;4.012;2023-02-11T03:09:07;11.85;;;5.80;;
23543;SDS011;11950;51.230;4.012;2023-02-11T03:11:40;14.40;;;6.57;;
23543;SDS011;11950;51.230;4.012;2023-02-11T03:14:07;19.30;;;6.55;;
23543;SDS011;11950;51.230;4.012;2023-02-11T03:16:37;16.02;;;7.18;;
23543;SDS011;11950;51.230;4.012;2023-02-11T03:19:05;21.17;;;8.80;;
23543;SDS011;11950;51.230;4.012;2023-02-11T03:21:40;21.65;;;8.63;;
23543;SDS011;11950;51.230;4.012;2023-02-11T03:24:13;18.45;;;9.40;;
23543;SDS011;11950;51.230;4.012;2023-02-11T03:26:52;19.83;;;8.48;;
23543;SDS011;11950;51.230;4.012;2023-02-11T03:31:58;23.88;;;10.20;;
23543;SDS011;11950;51.230;4.012;2023-02-11T03:40:20;22.88;;;11.98;;
23543;SDS011;11950;51.230;4.012;2023-02-11T03:42:51;24.30;;;13.13;;
23543;SDS011;11950;51.230;4.012;2023-02-11T03:45:22;27.92;;;11.80;;
23543;SDS011;11950;51.230;4.012;2023-02-11T03:48:00;23.05;;;12.38;;
23543;SDS011;11950;51.230;4.012;2023-02-11T03:50:31;20.48;;;10.98;;
23543;SDS011;11950;51.230;4.012;2023-02-11T03:52:59;23.30;;;11.57;;
23543;SDS011;11950;51.230;4.012;2023-02-11T03:55:27;24.88;;;12.70;;
23543;SDS011;11950;51.230;4.012;2023-02-11T03:57:55;25.15;;;12.93;;
23543;SDS011;11950;51.230;4.012;2023-02-11T04:00:28;21.95;;;12.60;;
23543;SDS011;11950;51.230;4.012;2023-02-11T04:02:59;24.60;;;11.95;;
23543;SDS011;11950;51.230;4.012;2023-02-11T04:05:25;23.67;;;12.38;;
23543;SDS011;11950;51.230;4.012;2023-02-11T04:07:51;26.30;;;12.13;;
23543;SDS011;11950;51.230;4.012;2023-02-11T04:10:18;23.58;;;11.85;;
23543;SDS011;11950;51.230;4.012;2023-02-11T04:12:44;24.90;;;13.10;;
23543;SDS011;11950;51.230;4.012;2023-02-11T04:15:10;21.50;;;11.82;;
23543;SDS011;11950;51.230;4.012;2023-02-11T04:17:37;23.80;;;12.80;;
23543;SDS011;11950;51.230;4.012;2023-02-11T04:20:05;19.55;;;11.68;;
23543;SDS011;11950;51.230;4.012;2023-02-11T04:22:31;27.98;;;12.68;;
23543;SDS011;11950;51.230;4.012;2023-02-11T04:24:58;23.50;;;12.50;;
23543;SDS011;11950;51.230;4.012;2023-02-11T04:27:24;24.77;;;12.75;;
23543;SDS011;11950;51.230;4.012;2023-02-11T04:29:50;24.08;;;12.52;;
23543;SDS011;11950;51.230;4.012;2023-02-11T04:32:17;27.25;;;12.10;;
23543;SDS011;11950;51.230;4.012;2023-02-11T04:34:43;19.17;;;11.60;;
23543;SDS011;11950;51.230;4.012;2023-02-11T04:37:09;24.20;;;11.40;;
23543;SDS011;11950;51.230;4.012;2023-02-11T04:39:36;24.58;;;12.32;;
23543;SDS011;11950;51.230;4.012;2023-02-11T04:42:02;22.75;;;11.57;;
23543;SDS011;11950;51.230;4.012;2023-02-11T04:44:28;23.38;;;12.32;;
23543;SDS011;11950;51.230;4.012;2023-02-11T04:46:55;24.13;;;12.98;;
23543;SDS011;11950;51.230;4.012;2023-02-11T04:49:21;24.63;;;12.32;;
23543;SDS011;11950;51.230;4.012;2023-02-11T04:51:48;23.65;;;13.77;;
23543;SDS011;11950;51.230;4.012;2023-02-11T04:54:14;27.40;;;13.48;;
23543;SDS011;11950;51.230;4.012;2023-02-11T04:56:41;29.33;;;14.50;;
23543;SDS011;11950;51.230;4.012;2023-02-11T04:59:07;21.17;;;12.40;;
23543;SDS011;11950;51.230;4.012;2023-02-11T05:01:33;20.92;;;12.50;;
23543;SDS011;11950;51.230;4.012;2023-02-11T05:04:00;24.15;;;14.00;;
23543;SDS011;11950;51.230;4.012;2023-02-11T05:06:26;23.70;;;12.65;;
23543;SDS011;11950;51.230;4.012;2023-02-11T05:08:52;19.88;;;12.73;;
23543;SDS011;11950;51.230;4.012;2023-02-11T05:11:20;20.42;;;12.13;;
23543;SDS011;11950;51.230;4.012;2023-02-11T05:13:48;22.20;;;12.60;;
23543;SDS011;11950;51.230;4.012;2023-02-11T05:16:14;24.48;;;12.23;;
23543;SDS011;11950;51.230;4.012;2023-02-11T05:18:42;21.88;;;11.88;;
23543;SDS011;11950;51.230;4.012;2023-02-11T05:21:13;21.00;;;11.43;;
23543;SDS011;11950;51.230;4.012;2023-02-11T05:23:41;18.23;;;11.57;;
23543;SDS011;11950;51.230;4.012;2023-02-11T05:26:08;20.83;;;12.50;;
23543;SDS011;11950;51.230;4.012;2023-02-11T05:28:35;17.50;;;11.68;;
23543;SDS011;11950;51.230;4.012;2023-02-11T05:31:01;22.15;;;12.80;;
23543;SDS011;11950;51.230;4.012;2023-02-11T05:33:28;20.67;;;12.80;;
23543;SDS011;11950;51.230;4.012;2023-02-11T05:35:58;20.77;;;11.13;;
23543;SDS011;11950;51.230;4.012;2023-02-11T05:38:25;25.90;;;11.60;;
23543;SDS011;11950;51.230;4.012;2023-02-11T05:40:52;21.13;;;12.35;;
23543;SDS011;11950;51.230;4.012;2023-02-11T05:43:19;21.98;;;11.88;;
23543;SDS011;11950;51.230;4.012;2023-02-11T05:45:45;20.67;;;11.77;;
23543;SDS011;11950;51.230;4.012;2023-02-11T05:48:12;22.42;;;12.27;;
23543;SDS011;11950;51.230;4.012;2023-02-11T05:50:38;21.92;;;12.25;;
23543;SDS011;11950;51.230;4.012;2023-02-11T05:53:04;24.55;;;11.57;;
23543;SDS011;11950;51.230;4.012;2023-02-11T05:55:31;22.00;;;12.70;;
23543;SDS011;11950;51.230;4.012;2023-02-11T05:57:57;26.55;;;13.43;;
23543;SDS011;11950;51.230;4.012;2023-02-11T06:00:24;23.25;;;12.63;;
23543;SDS011;11950;51.230;4.012;2023-02-11T06:02:50;23.50;;;12.52;;
23543;SDS011;11950;51.230;4.012;2023-02-11T06:05:17;23.92;;;13.40;;
23543;SDS011;11950;51.230;4.012;2023-02-11T06:07:44;24.63;;;13.73;;
23543;SDS011;11950;51.230;4.012;2023-02-11T06:10:10;23.70;;;12.73;;
23543;SDS011;11950;51.230;4.012;2023-02-11T06:12:37;22.98;;;12.93;;
23543;SDS011;11950;51.230;4.012;2023-02-11T06:15:04;23.35;;;13.80;;
23543;SDS011;11950;51.230;4.012;2023-02-11T06:17:31;26.60;;;14.30;;
23543;SDS011;11950;51.230;4.012;2023-02-11T06:19:58;23.63;;;13.80;;
23543;SDS011;11950;51.230;4.012;2023-02-11T06:22:27;26.35;;;14.50;;
23543;SDS011;11950;51.230;4.012;2023-02-11T06:24:53;30.77;;;15.50;;
23543;SDS011;11950;51.230;4.012;2023-02-11T06:27:20;25.13;;;15.07;;
23543;SDS011;11950;51.230;4.012;2023-02-11T06:29:46;24.55;;;14.55;;
23543;SDS011;11950;51.230;4.012;2023-02-11T06:32:13;24.55;;;14.70;;
23543;SDS011;11950;51.230;4.012;2023-02-11T06:34:39;26.30;;;15.45;;
23543;SDS011;11950;51.230;4.012;2023-02-11T06:37:05;27.00;;;14.95;;
23543;SDS011;11950;51.230;4.012;2023-02-11T06:39:32;27.75;;;15.85;;
23543;SDS011;11950;51.230;4.012;2023-02-11T06:41:58;21.42;;;13.23;;
23543;SDS011;11950;51.230;4.012;2023-02-11T06:44:24;26.40;;;14.00;;
23543;SDS011;11950;51.230;4.012;2023-02-11T06:46:51;27.30;;;15.27;;
23543;SDS011;11950;51.230;4.012;2023-02-11T06:49:17;30.65;;;15.60;;
23543;SDS011;11950;51.230;4.012;2023-02-11T06:51:43;27.80;;;16.17;;
23543;SDS011;11950;51.230;4.012;2023-02-11T06:54:10;27.13;;;15.90;;
23543;SDS011;11950;51.230;4.012;2023-02-11T06:56:38;27.52;;;15.43;;
23543;SDS011;11950;51.230;4.012;2023-02-11T06:59:05;23.42;;;15.45;;
23543;SDS011;11950;51.230;4.012;2023-02-11T07:01:32;31.10;;;18.92;;
23543;SDS011;11950;51.230;4.012;2023-02-11T07:03:58;29.13;;;18.58;;
23543;SDS011;11950;51.230;4.012;2023-02-11T07:06:25;31.05;;;17.08;;
23543;SDS011;11950;51.230;4.012;2023-02-11T07:08:53;28.42;;;17.63;;
23543;SDS011;11950;51.230;4.012;2023-02-11T07:11:21;33.15;;;17.52;;
23543;SDS011;11950;51.230;4.012;2023-02-11T07:13:53;30.42;;;16.85;;
23543;SDS011;11950;51.230;4.012;2023-02-11T07:16:21;28.45;;;16.77;;
23543;SDS011;11950;51.230;4.012;2023-02-11T07:18:47;31.08;;;17.58;;
23543;SDS011;11950;51.230;4.012;2023-02-11T07:21:15;33.10;;;17.40;;
23543;SDS011;11950;51.230;4.012;2023-02-11T07:23:43;31.00;;;18.30;;
23543;SDS011;11950;51.230;4.012;2023-02-11T07:26:10;32.08;;;18.50;;
23543;SDS011;11950;51.230;4.012;2023-02-11T07:28:39;31.77;;;19.00;;
23543;SDS011;11950;51.230;4.012;2023-02-11T07:31:10;32.05;;;18.00;;
23543;SDS011;11950;51.230;4.012;2023-02-11T07:33:38;35.70;;;19.38;;
23543;SDS011;11950;51.230;4.012;2023-02-11T07:36:06;40.17;;;21.27;;
23543;SDS011;11950;51.230;4.012;2023-02-11T07:38:33;39.15;;;20.75;;
23543;SDS011;11950;51.230;4.012;2023-02-11T07:41:01;38.35;;;20.23;;
23543;SDS011;11950;51.230;4.012;2023-02-11T07:43:29;35.08;;;21.15;;
23543;SDS011;11950;51.230;4.012;2023-02-11T07:45:55;35.83;;;19.88;;
23543;SDS011;11950;51.230;4.012;2023-02-11T07:48:22;36.55;;;19.10;;
23543;SDS011;11950;51.230;4.012;2023-02-11T07:50:48;35.15;;;19.08;;
23543;SDS011;11950;51.230;4.012;2023-02-11T07:53:15;32.80;;;18.27;;
23543;SDS011;11950;51.230;4.012;2023-02-11T07:55:42;35.63;;;18.50;;
23543;SDS011;11950;51.230;4.012;2023-02-11T07:58:08;34.40;;;18.17;;
23543;SDS011;11950;51.230;4.012;2023-02-11T08:00:34;32.65;;;18.58;;
23543;SDS011;11950;51.230;4.012;2023-02-11T08:03:01;31.98;;;17.40;;
23543;SDS011;11950;51.230;4.012;2023-02-11T08:05:28;32.47;;;18.30;;
23543;SDS011;11950;51.230;4.012;2023-02-11T08:07:55;35.97;;;19.95;;
23543;SDS011;11950;51.230;4.012;2023-02-11T08:10:21;42.83;;;19.13;;
23543;SDS011;11950;51.230;4.012;2023-02-11T08:12:47;42.20;;;19.20;;
23543;SDS011;11950;51.230;4.012;2023-02-11T08:15:13;40.88;;;19.65;;
23543;SDS011;11950;51.230;4.012;2023-02-11T08:17:40;36.72;;;20.10;;
23543;SDS011;11950;51.230;4.012;2023-02-11T08:20:06;34.50;;;18.67;;
23543;SDS011;11950;51.230;4.012;2023-02-11T08:22:33;33.67;;;18.40;;
23543;SDS011;11950;51.230;4.012;2023-02-11T08:25:00;34.80;;;20.20;;
23543;SDS011;11950;51.230;4.012;2023-02-11T08:27:26;36.30;;;20.67;;
23543;SDS011;11950;51.230;4.012;2023-02-11T08:29:53;31.63;;;18.35;;
23543;SDS011;11950;51.230;4.012;2023-02-11T08:32:19;37.65;;;20.98;;
23543;SDS011;11950;51.230;4.012;2023-02-11T08:34:50;33.97;;;19.17;;
23543;SDS011;11950;51.230;4.012;2023-02-11T08:37:17;33.65;;;19.38;;
23543;SDS011;11950;51.230;4.012;2023-02-11T08:39:44;31.63;;;19.00;;
23543;SDS011;11950;51.230;4.012;2023-02-11T08:42:12;36.67;;;19.50;;
23543;SDS011;11950;51.230;4.012;2023-02-11T08:44:40;37.85;;;19.83;;
23543;SDS011;11950;51.230;4.012;2023-02-11T08:47:06;33.83;;;19.83;;
23543;SDS011;11950;51.230;4.012;2023-02-11T08:49:33;36.42;;;19.50;;
23543;SDS011;11950;51.230;4.012;2023-02-11T08:51:59;34.75;;;20.90;;
23543;SDS011;11950;51.230;4.012;2023-02-11T08:54:29;33.40;;;19.17;;
23543;SDS011;11950;51.230;4.012;2023-02-11T08:56:56;37.47;;;20.92;;
23543;SDS011;11950;51.230;4.012;2023-02-11T08:59:22;41.10;;;21.05;;
23543;SDS011;11950;51.230;4.012;2023-02-11T09:01:49;35.83;;;19.13;;
23543;SDS011;11950;51.230;4.012;2023-02-11T09:04:15;36.47;;;19.98;;
23543;SDS011;11950;51.230;4.012;2023-02-11T09:06:41;32.08;;;18.98;;
23543;SDS011;11950;51.230;4.012;2023-02-11T09:09:12;40.13;;;20.42;;
23543;SDS011;11950;51.230;4.012;2023-02-11T09:11:40;37.13;;;20.50;;
23543;SDS011;11950;51.230;4.012;2023-02-11T09:14:07;32.45;;;19.20;;
23543;SDS011;11950;51.230;4.012;2023-02-11T09:16:42;35.45;;;21.98;;
23543;SDS011;11950;51.230;4.012;2023-02-11T09:19:09;32.97;;;20.67;;
23543;SDS011;11950;51.230;4.012;2023-02-11T09:21:36;32.85;;;20.25;;
23543;SDS011;11950;51.230;4.012;2023-02-11T09:24:02;30.08;;;19.05;;
23543;SDS011;11950;51.230;4.012;2023-02-11T09:26:31;35.10;;;20.08;;
23543;SDS011;11950;51.230;4.012;2023-02-11T09:28:59;38.20;;;19.63;;
23543;SDS011;11950;51.230;4.012;2023-02-11T09:31:27;30.05;;;19.83;;
23543;SDS011;11950;51.230;4.012;2023-02-11T09:33:56;34.72;;;20.48;;
23543;SDS011;11950;51.230;4.012;2023-02-11T09:36:28;31.05;;;19.13;;
23543;SDS011;11950;51.230;4.012;2023-02-11T09:38:57;37.17;;;20.98;;
23543;SDS011;11950;51.230;4.012;2023-02-11T09:42:29;35.42;;;19.48;;
23543;SDS011;11950;51.230;4.012;2023-02-11T09:44:22;31.35;;;19.48;;
23543;SDS011;11950;51.230;4.012;2023-02-11T09:46:57;31.80;;;18.52;;
23543;SDS011;11950;51.230;4.012;2023-02-11T09:49:39;35.65;;;19.63;;
23543;SDS011;11950;51.230;4.012;2023-02-11T09:52:45;30.48;;;19.70;;
23543;SDS011;11950;51.230;4.012;2023-02-11T09:55:20;30.60;;;18.50;;
23543;SDS011;11950;51.230;4.012;2023-02-11T09:57:51;29.63;;;18.25;;
23543;SDS011;11950;51.230;4.012;2023-02-11T10:00:27;32.45;;;18.73;;
23543;SDS011;11950;51.230;4.012;2023-02-11T10:14:26;33.25;;;19.45;;
23543;SDS011;11950;51.230;4.012;2023-02-11T10:17:14;30.05;;;18.52;;
23543;SDS011;11950;51.230;4.012;2023-02-11T10:22:38;29.55;;;17.80;;
23543;SDS011;11950;51.230;4.012;2023-02-11T10:25:16;31.48;;;19.05;;
23543;SDS011;11950;51.230;4.012;2023-02-11T10:27:51;33.42;;;17.83;;
23543;SDS011;11950;51.230;4.012;2023-02-11T10:30:27;31.25;;;18.15;;
23543;SDS011;11950;51.230;4.012;2023-02-11T10:33:11;32.78;;;18.67;;
23543;SDS011;11950;51.230;4.012;2023-02-11T10:35:40;31.60;;;18.60;;
23543;SDS011;11950;51.230;4.012;2023-02-11T10:38:09;28.02;;;16.75;;
23543;SDS011;11950;51.230;4.012;2023-02-11T10:40:36;29.60;;;16.65;;
23543;SDS011;11950;51.230;4.012;2023-02-11T10:43:05;31.50;;;18.77;;
23543;SDS011;11950;51.230;4.012;2023-02-11T10:45:40;30.15;;;18.23;;
23543;SDS011;11950;51.230;4.012;2023-02-11T10:56:35;29.98;;;17.55;;
23543;SDS011;11950;51.230;4.012;2023-02-11T10:59:06;29.63;;;16.35;;
23543;SDS011;11950;51.230;4.012;2023-02-11T11:01:51;29.65;;;17.08;;
23543;SDS011;11950;51.230;4.012;2023-02-11T11:09:50;32.75;;;18.35;;
23543;SDS011;11950;51.230;4.012;2023-02-11T11:17:34;25.83;;;15.30;;
23543;SDS011;11950;51.230;4.012;2023-02-11T11:22:45;25.75;;;15.75;;
23543;SDS011;11950;51.230;4.012;2023-02-11T11:25:20;25.80;;;15.20;;
23543;SDS011;11950;51.230;4.012;2023-02-11T11:27:55;27.50;;;17.17;;
23543;SDS011;11950;51.230;4.012;2023-02-11T11:30:25;27.13;;;16.38;;
23543;SDS011;11950;51.230;4.012;2023-02-11T11:33:03;26.48;;;15.98;;
23543;SDS011;11950;51.230;4.012;2023-02-11T11:35:40;28.40;;;16.48;;
23543;SDS011;11950;51.230;4.012;2023-02-11T11:38:10;29.60;;;16.83;;
23543;SDS011;11950;51.230;4.012;2023-02-11T11:40:39;27.05;;;15.95;;
23543;SDS011;11950;51.230;4.012;2023-02-11T11:45:32;23.48;;;14.98;;
23543;SDS011;11950;51.230;4.012;2023-02-11T11:48:11;26.52;;;16.05;;
23543;SDS011;11950;51.230;4.012;2023-02-11T11:50:51;27.50;;;15.95;;
23543;SDS011;11950;51.230;4.012;2023-02-11T11:56:13;25.48;;;15.85;;
23543;SDS011;11950;51.230;4.012;2023-02-11T11:58:44;29.25;;;16.13;;
23543;SDS011;11950;51.230;4.012;2023-02-11T12:04:09;27.23;;;15.32;;
23543;SDS011;11950;51.230;4.012;2023-02-11T12:07:01;27.35;;;15.45;;
23543;SDS011;11950;51.230;4.012;2023-02-11T12:15:03;21.02;;;14.82;;
23543;SDS011;11950;51.230;4.012;2023-02-11T12:20:37;22.15;;;13.45;;
23543;SDS011;11950;51.230;4.012;2023-02-11T12:23:19;24.25;;;14.70;;
23543;SDS011;11950;51.230;4.012;2023-02-11T12:26:00;24.30;;;14.35;;
23543;SDS011;11950;51.230;4.012;2023-02-11T12:51:28;24.65;;;14.93;;
23543;SDS011;11950;51.230;4.012;2023-02-11T12:54:19;25.95;;;14.45;;
23543;SDS011;11950;51.230;4.012;2023-02-11T12:59:39;25.10;;;15.10;;
23543;SDS011;11950;51.230;4.012;2023-02-11T13:02:28;24.75;;;13.90;;
23543;SDS011;11950;51.230;4.012;2023-02-11T13:05:03;22.75;;;14.15;;
23543;SDS011;11950;51.230;4.012;2023-02-11T13:07:52;20.58;;;13.82;;
23543;SDS011;11950;51.230;4.012;2023-02-11T13:12:58;24.33;;;15.30;;
23543;SDS011;11950;51.230;4.012;2023-02-11T13:15:42;23.92;;;14.60;;
23543;SDS011;11950;51.230;4.012;2023-02-11T13:18:24;25.38;;;14.52;;
23543;SDS011;11950;51.230;4.012;2023-02-11T13:20:58;24.88;;;13.85;;
23543;SDS011;11950;51.230;4.012;2023-02-11T13:23:41;23.80;;;14.85;;
23543;SDS011;11950;51.230;4.012;2023-02-11T13:26:26;26.67;;;15.50;;
23543;SDS011;11950;51.230;4.012;2023-02-11T13:31:37;25.70;;;14.75;;
23543;SDS011;11950;51.230;4.012;2023-02-11T13:34:19;24.25;;;14.68;;
23543;SDS011;11950;51.230;4.012;2023-02-11T13:39:55;23.70;;;14.25;;
23543;SDS011;11950;51.230;4.012;2023-02-11T13:42:23;22.85;;;13.77;;
23543;SDS011;11950;51.230;4.012;2023-02-11T13:44:50;22.83;;;14.10;;
23543;SDS011;11950;51.230;4.012;2023-02-11T13:47:34;23.98;;;14.52;;
23543;SDS011;11950;51.230;4.012;2023-02-11T13:50:03;25.35;;;14.80;;
23543;SDS011;11950;51.230;4.012;2023-02-11T13:52:33;23.73;;;14.25;;
23543;SDS011;11950;51.230;4.012;2023-02-11T13:55:08;22.90;;;13.63;;
23543;SDS011;11950;51.230;4.012;2023-02-11T13:57:39;24.52;;;14.55;;
23543;SDS011;11950;51.230;4.012;2023-02-11T14:09:38;22.80;;;14.07;;
23543;SDS011;11950;51.230;4.012;2023-02-11T14:11:46;22.77;;;13.63;;
23543;SDS011;11950;51.230;4.012;2023-02-11T14:14:24;24.60;;;13.63;;
23543;SDS011;11950;51.230;4.012;2023-02-11T14:22:25;22.55;;;14.63;;
23543;SDS011;11950;51.230;4.012;2023-02-11T14:24:54;24.95;;;13.68;;
23543;SDS011;11950;51.230;4.012;2023-02-11T14:27:41;21.10;;;12.88;;
23543;SDS011;11950;51.230;4.012;2023-02-11T14:36:18;17.42;;;11.63;;
23543;SDS011;11950;51.230;4.012;2023-02-11T14:38:54;22.42;;;12.60;;
23543;SDS011;11950;51.230;4.012;2023-02-11T14:41:50;27.35;;;13.38;;
23543;SDS011;11950;51.230;4.012;2023-02-11T14:44:19;22.40;;;13.65;;
23543;SDS011;11950;51.230;4.012;2023-02-11T14:46:51;22.38;;;13.43;;
23543;SDS011;11950;51.230;4.012;2023-02-11T14:52:00;24.08;;;13.02;;
23543;SDS011;11950;51.230;4.012;2023-02-11T14:54:32;23.15;;;13.68;;
23543;SDS011;11950;51.230;4.012;2023-02-11T14:57:07;22.02;;;13.90;;
23543;SDS011;11950;51.230;4.012;2023-02-11T14:59:33;23.58;;;13.27;;
23543;SDS011;11950;51.230;4.012;2023-02-11T15:02:00;22.58;;;13.50;;
23543;SDS011;11950;51.230;4.012;2023-02-11T15:04:28;22.20;;;13.02;;
23543;SDS011;11950;51.230;4.012;2023-02-11T15:06:56;21.17;;;12.77;;
23543;SDS011;11950;51.230;4.012;2023-02-11T15:09:33;20.30;;;13.75;;
23543;SDS011;11950;51.230;4.012;2023-02-11T15:12:21;21.15;;;13.10;;
23543;SDS011;11950;51.230;4.012;2023-02-11T15:14:51;21.27;;;12.82;;
23543;SDS011;11950;51.230;4.012;2023-02-11T15:17:23;23.85;;;12.95;;
23543;SDS011;11950;51.230;4.012;2023-02-11T15:19:54;24.88;;;15.68;;
23543;SDS011;11950;51.230;4.012;2023-02-11T15:22:26;28.38;;;17.05;;
23543;SDS011;11950;51.230;4.012;2023-02-11T15:24:59;28.20;;;18.25;;
23543;SDS011;11950;51.230;4.012;2023-02-11T15:32:47;29.63;;;19.52;;
23543;SDS011;11950;51.230;4.012;2023-02-11T15:35:15;30.70;;;18.92;;
23543;SDS011;11950;51.230;4.012;2023-02-11T15:37:43;24.02;;;16.10;;
23543;SDS011;11950;51.230;4.012;2023-02-11T15:45:24;20.13;;;14.57;;
23543;SDS011;11950;51.230;4.012;2023-02-11T15:47:58;23.33;;;14.23;;
23543;SDS011;11950;51.230;4.012;2023-02-11T15:50:42;21.42;;;13.52;;
23543;SDS011;11950;51.230;4.012;2023-02-11T15:56:24;22.33;;;13.38;;
23543;SDS011;11950;51.230;4.012;2023-02-11T15:58:56;23.25;;;14.23;;
23543;SDS011;11950;51.230;4.012;2023-02-11T16:01:30;23.80;;;13.20;;
23543;SDS011;11950;51.230;4.012;2023-02-11T16:03:58;24.92;;;14.23;;
23543;SDS011;11950;51.230;4.012;2023-02-11T16:06:26;23.15;;;12.93;;
23543;SDS011;11950;51.230;4.012;2023-02-11T16:11:34;25.38;;;13.38;;
23543;SDS011;11950;51.230;4.012;2023-02-11T16:16:57;20.75;;;13.15;;
23543;SDS011;11950;51.230;4.012;2023-02-11T16:19:27;23.98;;;13.70;;
23543;SDS011;11950;51.230;4.012;2023-02-11T16:21:58;22.60;;;13.73;;
23543;SDS011;11950;51.230;4.012;2023-02-11T16:24:32;26.73;;;15.68;;
23543;SDS011;11950;51.230;4.012;2023-02-11T16:27:05;26.30;;;13.30;;
23543;SDS011;11950;51.230;4.012;2023-02-11T16:29:44;19.55;;;12.95;;
23543;SDS011;11950;51.230;4.012;2023-02-11T16:32:17;25.38;;;14.80;;
23543;SDS011;11950;51.230;4.012;2023-02-11T16:34:48;25.65;;;15.27;;
23543;SDS011;11950;51.230;4.012;2023-02-11T16:37:16;26.52;;;14.93;;
23543;SDS011;11950;51.230;4.012;2023-02-11T16:39:42;26.38;;;14.90;;
23543;SDS011;11950;51.230;4.012;2023-02-11T16:42:10;27.67;;;15.88;;
23543;SDS011;11950;51.230;4.012;2023-02-11T16:44:36;24.63;;;14.88;;
23543;SDS011;11950;51.230;4.012;2023-02-11T16:47:03;30.63;;;15.85;;
23543;SDS011;11950;51.230;4.012;2023-02-11T16:49:36;24.48;;;14.68;;
23543;SDS011;11950;51.230;4.012;2023-02-11T16:52:05;22.33;;;14.88;;
23543;SDS011;11950;51.230;4.012;2023-02-11T16:54:37;26.05;;;15.02;;
23543;SDS011;11950;51.230;4.012;2023-02-11T16:57:07;23.55;;;14.15;;
23543;SDS011;11950;51.230;4.012;2023-02-11T16:59:38;22.48;;;14.18;;
23543;SDS011;11950;51.230;4.012;2023-02-11T17:02:07;20.33;;;13.27;;
23543;SDS011;11950;51.230;4.012;2023-02-11T17:04:45;26.58;;;15.90;;
23543;SDS011;11950;51.230;4.012;2023-02-11T17:07:11;20.85;;;13.63;;
23543;SDS011;11950;51.230;4.012;2023-02-11T17:09:38;23.73;;;15.07;;
23543;SDS011;11950;51.230;4.012;2023-02-11T17:12:04;23.92;;;14.38;;
23543;SDS011;11950;51.230;4.012;2023-02-11T17:14:32;25.33;;;14.07;;
23543;SDS011;11950;51.230;4.012;2023-02-11T17:16:58;25.90;;;15.05;;
23543;SDS011;11950;51.230;4.012;2023-02-11T17:19:26;24.58;;;15.07;;
23543;SDS011;11950;51.230;4.012;2023-02-11T17:21:52;28.17;;;14.43;;
23543;SDS011;11950;51.230;4.012;2023-02-11T17:24:20;24.77;;;14.40;;
23543;SDS011;11950;51.230;4.012;2023-02-11T17:26:47;24.17;;;15.13;;
23543;SDS011;11950;51.230;4.012;2023-02-11T17:29:15;25.98;;;14.63;;
23543;SDS011;11950;51.230;4.012;2023-02-11T17:31:45;24.55;;;14.85;;
23543;SDS011;11950;51.230;4.012;2023-02-11T17:34:12;22.42;;;13.93;;
23543;SDS011;11950;51.230;4.012;2023-02-11T17:36:39;23.10;;;14.07;;
23543;SDS011;11950;51.230;4.012;2023-02-11T17:39:08;25.58;;;15.23;;
23543;SDS011;11950;51.230;4.012;2023-02-11T17:41:36;23.05;;;14.57;;
23543;SDS011;11950;51.230;4.012;2023-02-11T17:44:04;25.38;;;14.85;;
23543;SDS011;11950;51.230;4.012;2023-02-11T17:46:32;24.63;;;14.93;;